Airfield :







YOU CAN JOIN US ON...

 
LOGIN :

Register | Disclaimer

   EN    FR    IT 

 









Legend :    VFR   Marginal VFR   IFR   Intensive IFR   Very Intensive IFR
Visi :
Ceiling :
>= 8 km
>= 3000ft
5 to 8 km
1000 to 3000 ft
1500m to 5 km
500 to 1000 ft
800 to 1500m
200 to 500 ft
< 800m
< 200 ft
Symbols :   Thunderstorms  Fog  Heavy snow  Heavy precipitations  Wind > 20 kt






- Airport Elevation : 550 ft
- IATA code : YOY


CYOY - C J.H.L.(Joe) Lecomte) Heliport

CURRENT METAR :
  • 170400Z AUTO 00000KT 9SM CLR M16/M17 A3053 RMK SLP353

EXPIRED METARs :
  • 170300Z AUTO 26006KT 9SM CLR M13/M16 A3053 RMK SLP353
  • 170200Z AUTO 16003KT 130V200 9SM CLR M13/M15 A3053 RMK SLP354

TAF TAF CYOY
Valid from the 16 at 18:00 until the 17 at 06:00 UTC


161730Z 1618/1706 30012KT P6SM SKC
BECMG 1621/1623 VRB03KT RMK FCST BASED ON AUTO OBS. NXT FCST BY 170000Z



MET'MAP, your aeronautical weather chart ! - Copyright ORBIFLY December 2007 - Disclaimer

ORBIFLY MET'MAP TEAM :

Programming & Development : Alexandra Zaïnal
Concept & Development : Baudouin d'Aumeries
Co-Development & Prog : Marc-Olivier Méhu
Technical & hardware support : Manuel Goepfert

Contact : metmap@orbifly.com




SOURCES & CREDITS :

   NOAA